createdAt,value
2024-02-28T00:02:03.805Z,99164.97
2024-02-28T00:04:30.461Z,99164.13
2024-02-28T00:06:57.194Z,99162.97
2024-02-28T00:09:24.006Z,99166.94
2024-02-28T00:11:50.807Z,99169.09
2024-02-28T00:14:17.519Z,99173.09
2024-02-28T00:16:45.405Z,99173.38
2024-02-28T00:19:13.674Z,99167.88
2024-02-28T00:21:41.562Z,99167.88
2024-02-28T00:24:08.981Z,99163.09
2024-02-28T00:26:36.006Z,99153.66
2024-02-28T00:29:03.201Z,99164.13
2024-02-28T00:31:30.010Z,99161.25
2024-02-28T00:33:56.788Z,99149.75
2024-02-28T00:36:23.530Z,99150.69
2024-02-28T00:38:50.303Z,99152.84
2024-02-28T00:41:16.995Z,99167.84
2024-02-28T00:43:43.673Z,99170.66
2024-02-28T00:46:13.292Z,99174.22
2024-02-28T00:48:40.737Z,99171.81
2024-02-28T00:51:09.360Z,99172.09
2024-02-28T00:53:36.131Z,99166.19
2024-02-28T00:56:03.013Z,99170.25
2024-02-28T00:58:31.177Z,99165.78
2024-02-28T01:00:58.451Z,99175.88
2024-02-28T01:03:25.373Z,99176.53
2024-02-28T01:05:52.417Z,99171.69
2024-02-28T01:08:19.598Z,99172.00
2024-02-28T01:10:47.399Z,99162.69
2024-02-28T01:13:14.161Z,99153.66
2024-02-28T01:15:43.086Z,99159.94
2024-02-28T01:18:10.814Z,99163.13
2024-02-28T01:20:37.827Z,99170.00
2024-02-28T01:23:04.751Z,99172.41
2024-02-28T01:25:31.458Z,99172.47
2024-02-28T01:28:00.997Z,99169.53
2024-02-28T01:30:27.760Z,99161.06
2024-02-28T01:32:54.510Z,99174.88
2024-02-28T01:35:21.323Z,99166.63
2024-02-28T01:37:48.078Z,99165.06
2024-02-28T01:40:14.888Z,99161.06
2024-02-28T01:42:41.684Z,99162.50
2024-02-28T01:45:11.183Z,99164.88
2024-02-28T01:47:38.554Z,99159.25
2024-02-28T01:50:06.396Z,99167.34
2024-02-28T01:52:33.503Z,99160.53
2024-02-28T01:55:00.534Z,99154.09
2024-02-28T01:57:28.442Z,99154.19
2024-02-28T01:59:57.037Z,99160.53
2024-02-28T02:02:23.734Z,99166.03
2024-02-28T02:04:50.735Z,99159.25
2024-02-28T02:07:17.476Z,99161.84
2024-02-28T02:09:44.245Z,99162.84
2024-02-28T02:12:10.985Z,99161.31
2024-02-28T02:14:37.642Z,99161.69
2024-02-28T02:17:04.275Z,99162.41
2024-02-28T02:19:31.114Z,99159.94
2024-02-28T02:22:00.063Z,99169.31
2024-02-28T02:24:26.801Z,99171.09
2024-02-28T02:26:59.341Z,99166.28
2024-02-28T02:29:25.995Z,99169.03
2024-02-28T02:31:52.600Z,99164.34
2024-02-28T02:34:19.213Z,99165.78
2024-02-28T02:36:45.896Z,99171.22
2024-02-28T02:39:12.870Z,99170.78
2024-02-28T02:41:39.497Z,99169.88
2024-02-28T02:44:06.096Z,99164.94
2024-02-28T02:46:32.795Z,99175.91
2024-02-28T02:48:59.495Z,99177.00
2024-02-28T02:51:26.913Z,99172.03
2024-02-28T02:53:54.894Z,99175.22
2024-02-28T02:56:21.844Z,99169.44
2024-02-28T02:58:48.471Z,99172.63
2024-02-28T03:01:15.481Z,99167.41
2024-02-28T03:03:42.322Z,99173.88
2024-02-28T03:06:10.982Z,99166.59
2024-02-28T03:08:37.661Z,99171.31
2024-02-28T03:11:05.782Z,99169.56
2024-02-28T03:13:32.539Z,99181.97
2024-02-28T03:15:59.477Z,99171.78
2024-02-28T03:18:26.261Z,99181.00
2024-02-28T03:20:52.886Z,99180.50
2024-02-28T03:23:19.523Z,99186.50
2024-02-28T03:25:46.326Z,99194.66
2024-02-28T03:28:12.964Z,99188.28
2024-02-28T03:30:39.644Z,99191.63
2024-02-28T03:33:06.469Z,99196.41
2024-02-28T03:35:33.082Z,99190.66
2024-02-28T03:37:59.662Z,99192.59
2024-02-28T03:40:26.350Z,99195.41
2024-02-28T03:42:53.057Z,99189.41
2024-02-28T03:45:21.035Z,99184.81
2024-02-28T03:47:47.756Z,99193.25
2024-02-28T03:50:14.856Z,99193.22
2024-02-28T03:52:41.490Z,99184.69
2024-02-28T03:55:08.393Z,99187.25
2024-02-28T03:57:35.086Z,99188.97
2024-02-28T06:23:28.956Z,99307.22
2024-02-28T06:25:57.495Z,99297.88
2024-02-28T06:28:24.363Z,99321.06
2024-02-28T07:40:19.909Z,99431.75
2024-02-28T07:42:46.719Z,99435.59
2024-02-28T07:45:13.487Z,99449.63
2024-02-28T07:47:41.392Z,99447.47
2024-02-28T07:50:08.532Z,99450.91
2024-02-28T07:52:36.303Z,99454.34
2024-02-28T07:55:03.534Z,99450.06
2024-02-28T07:57:30.195Z,99452.47
2024-02-28T07:59:57.052Z,99461.91
2024-02-28T08:02:24.015Z,99461.47
2024-02-28T08:04:51.827Z,99458.28
2024-02-28T08:07:18.645Z,99466.97
2024-02-28T08:09:45.333Z,99470.19
2024-02-28T08:12:12.038Z,99472.72
2024-02-28T08:14:38.633Z,99476.50
2024-02-28T08:17:05.634Z,99474.13
2024-02-28T08:19:32.286Z,99469.84
2024-02-28T08:21:59.002Z,99474.53
2024-02-28T08:24:25.746Z,99479.28
2024-02-28T08:26:52.520Z,99482.78
2024-02-28T08:29:19.159Z,99484.63
2024-02-28T08:31:46.152Z,99487.25
2024-02-28T08:34:13.176Z,99478.88
2024-02-28T08:36:40.033Z,99487.84
2024-02-28T08:39:06.773Z,99490.94
2024-02-28T08:41:35.129Z,99492.63
2024-02-28T08:44:02.155Z,99492.78
2024-02-28T08:46:28.813Z,99499.41
2024-02-28T09:58:48.546Z,99558.88
2024-02-28T10:01:18.379Z,99554.91
2024-02-28T10:03:46.790Z,99564.34
2024-02-28T10:06:14.913Z,99565.16
2024-02-28T10:08:41.690Z,99563.91
2024-02-28T10:11:08.608Z,99574.88
2024-02-28T10:13:36.906Z,99572.13
2024-02-28T10:16:04.887Z,99576.66
2024-02-28T10:18:31.654Z,99577.91
2024-02-28T10:20:58.321Z,99582.56
2024-02-28T10:23:25.102Z,99583.34
2024-02-28T10:25:56.714Z,99582.34
2024-02-28T10:28:24.980Z,99576.81
2024-02-28T10:30:52.079Z,99575.09
2024-02-28T10:33:18.988Z,99570.34
2024-02-28T10:35:46.283Z,99582.56
2024-02-28T10:38:14.466Z,99573.38
2024-02-28T10:40:44.653Z,99575.94
2024-02-28T10:43:12.223Z,99583.81
2024-02-28T10:45:57.698Z,99581.06
2024-02-28T10:48:29.138Z,99578.41
2024-02-28T10:50:56.368Z,99568.75
2024-02-28T10:53:39.035Z,99573.56
2024-02-28T10:56:07.499Z,99576.75
2024-02-28T10:58:38.625Z,99577.56
2024-02-28T11:01:06.622Z,99583.47
2024-02-28T11:03:33.706Z,99581.59
2024-02-28T11:06:00.340Z,99582.75
2024-02-28T11:08:29.320Z,99581.44
2024-02-28T11:11:03.147Z,99578.06
2024-02-28T11:13:32.261Z,99573.66
2024-02-28T11:16:11.793Z,99574.03
2024-02-28T11:18:50.129Z,99575.25
2024-02-28T11:21:17.991Z,99570.47
2024-02-28T11:23:48.966Z,99569.72
2024-02-28T11:26:16.831Z,99566.00
2024-02-28T11:28:43.704Z,99572.75
2024-02-28T11:31:10.630Z,99571.34
2024-02-28T11:33:37.750Z,99565.03
2024-02-28T11:36:05.125Z,99564.06
2024-02-28T11:38:32.756Z,99569.41
2024-02-28T11:40:59.502Z,99567.69
2024-02-28T11:43:27.199Z,99563.78
2024-02-28T11:45:56.408Z,99559.56
2024-02-28T11:48:23.349Z,99568.41
2024-02-28T11:50:52.290Z,99565.03
2024-02-28T11:53:18.972Z,99566.72
2024-02-28T11:55:48.772Z,99557.47
2024-02-28T11:58:16.026Z,99560.69
2024-02-28T12:00:50.062Z,99561.16
2024-02-28T12:03:24.416Z,99571.72
2024-02-28T12:05:52.557Z,99567.31
2024-02-28T12:08:20.428Z,99557.47
2024-02-28T12:10:50.347Z,99557.47
2024-02-28T12:13:21.661Z,99551.13
2024-02-28T12:15:49.523Z,99554.38
2024-02-28T12:18:16.764Z,99553.66
2024-02-28T12:20:43.661Z,99546.47
2024-02-28T12:23:10.483Z,99550.50
2024-02-28T12:25:37.375Z,99549.59
2024-02-28T12:28:07.181Z,99553.53
2024-02-28T12:30:42.511Z,99554.78
2024-02-28T12:33:10.184Z,99545.28
2024-02-28T12:35:37.511Z,99557.50
2024-02-28T12:38:04.543Z,99548.88
2024-02-28T12:40:31.338Z,99539.13
2024-02-28T12:42:58.035Z,99542.63
2024-02-28T12:45:24.864Z,99553.75
2024-02-28T12:47:51.570Z,99547.44
2024-02-28T12:50:18.374Z,99552.97
2024-02-28T12:52:45.014Z,99545.03
2024-02-28T12:55:12.623Z,99555.34
2024-02-28T12:57:39.288Z,99548.94
2024-02-28T13:00:07.637Z,99551.31
2024-02-28T13:02:34.451Z,99541.06
2024-02-28T13:05:01.085Z,99549.88
2024-02-28T13:07:27.771Z,99558.25
2024-02-28T13:09:54.440Z,99544.66
2024-02-28T13:12:21.335Z,99544.66
2024-02-28T13:14:48.097Z,99541.84
2024-02-28T13:17:16.179Z,99544.53
2024-02-28T13:19:42.848Z,99544.81
2024-02-28T13:22:09.531Z,99543.25
2024-02-28T13:24:37.109Z,99553.47
2024-02-28T13:27:04.141Z,99546.91
2024-02-28T13:29:32.809Z,99550.88
2024-02-28T13:32:00.108Z,99552.00
2024-02-28T13:34:26.814Z,99547.56
2024-02-28T13:36:53.586Z,99545.41
2024-02-28T13:39:20.345Z,99553.78
2024-02-28T13:41:51.572Z,99556.97
2024-02-28T13:44:20.070Z,99554.53
2024-02-28T13:46:47.194Z,99553.31
2024-02-28T13:49:18.028Z,99551.16
2024-02-28T13:51:46.155Z,99546.38
2024-02-28T13:54:12.908Z,99559.81
2024-02-28T13:56:39.529Z,99555.31
2024-02-28T13:59:07.513Z,99559.25
2024-02-28T14:01:34.394Z,99560.41
2024-02-28T14:04:01.069Z,99560.28
2024-02-28T14:06:27.968Z,99557.78
2024-02-28T14:08:54.782Z,99564.69
2024-02-28T14:11:21.953Z,99563.47
2024-02-28T14:13:48.652Z,99560.56
2024-02-28T14:16:15.751Z,99558.88
2024-02-28T14:18:42.694Z,99565.16
2024-02-28T14:21:09.493Z,99563.56
2024-02-28T14:23:36.211Z,99568.38
2024-02-28T14:26:03.456Z,99568.44
2024-02-28T14:28:30.092Z,99567.97
2024-02-28T14:30:56.924Z,99570.97
2024-02-28T14:33:23.875Z,99572.75
2024-02-28T14:35:50.679Z,99567.53
2024-02-28T14:38:17.353Z,99589.16
2024-02-28T14:40:44.149Z,99581.19
2024-02-28T14:43:11.144Z,99593.41
2024-02-28T14:45:40.665Z,99595.31
2024-02-28T14:48:08.490Z,99594.34
2024-02-28T14:50:35.243Z,99588.72
2024-02-28T14:53:01.987Z,99601.16
2024-02-28T14:55:28.717Z,99600.09
2024-02-28T14:57:55.431Z,99613.19
2024-02-28T15:00:22.343Z,99604.28
2024-02-28T15:02:49.106Z,99603.72
2024-02-28T15:05:15.919Z,99608.59
2024-02-28T15:07:42.711Z,99607.19
2024-02-28T15:10:09.752Z,99608.66
2024-02-28T15:12:36.888Z,99603.06
2024-02-28T15:15:05.720Z,99608.38
2024-02-28T15:17:33.681Z,99619.59
2024-02-28T15:20:03.431Z,99615.25
2024-02-28T15:22:30.715Z,99623.81
2024-02-28T15:24:57.965Z,99635.84
2024-02-28T15:27:24.690Z,99618.44
2024-02-28T15:29:51.410Z,99627.41
2024-02-28T15:32:18.057Z,99639.16
2024-02-28T15:34:44.670Z,99631.16
2024-02-28T15:37:11.673Z,99632.31
2024-02-28T15:39:38.369Z,99638.56
2024-02-28T15:42:05.333Z,99634.22
2024-02-28T15:44:31.991Z,99645.59
2024-02-28T15:46:58.604Z,99636.09
2024-02-28T15:49:33.226Z,99656.81
2024-02-28T15:52:07.049Z,99651.94
2024-02-28T15:54:33.702Z,99645.91
2024-02-28T15:57:01.655Z,99637.91
2024-02-28T15:59:28.420Z,99641.38
2024-02-28T16:01:55.418Z,99644.81
2024-02-28T16:04:22.154Z,99642.81
2024-02-28T16:09:30.797Z,99644.50
2024-02-28T16:17:18.338Z,99646.44
2024-02-28T16:19:45.706Z,99650.25
2024-02-28T16:22:12.522Z,99654.44
2024-02-28T16:24:39.698Z,99661.34
2024-02-28T16:27:06.828Z,99662.78
2024-02-28T16:29:33.457Z,99665.41
2024-02-28T16:32:00.113Z,99663.34
2024-02-28T16:34:28.118Z,99668.41
2024-02-28T16:36:54.799Z,99664.75
2024-02-28T16:39:22.337Z,99672.09
2024-02-28T16:41:49.135Z,99671.66
2024-02-28T16:44:15.915Z,99686.56
2024-02-28T16:46:42.886Z,99682.56
2024-02-28T16:49:09.749Z,99687.28
2024-02-28T16:51:39.005Z,99697.81
2024-02-28T16:54:07.374Z,99693.34
2024-02-28T16:56:34.077Z,99697.09
2024-02-28T16:59:00.946Z,99689.84
2024-02-28T17:01:28.020Z,99677.75
2024-02-28T17:03:55.058Z,99684.84
2024-02-28T17:06:21.995Z,99675.63
2024-02-28T17:08:49.030Z,99681.03
2024-02-28T17:11:15.985Z,99692.59
2024-02-28T17:13:43.020Z,99691.34
2024-02-28T17:16:09.986Z,99708.78
2024-02-28T17:51:55.588Z,99733.16
2024-02-28T18:08:54.970Z,99739.91
2024-02-28T18:31:11.941Z,99745.34
2024-02-28T18:42:07.545Z,99746.25
2024-02-28T18:44:37.697Z,99745.31
2024-02-28T18:47:05.943Z,99738.22
2024-02-28T19:16:27.692Z,99720.25
2024-02-28T19:18:54.725Z,99755.94
2024-02-28T19:21:21.500Z,99756.22
2024-02-28T19:23:48.715Z,99761.03
2024-02-28T19:26:17.754Z,99748.22
2024-02-28T19:28:45.390Z,99756.09
2024-02-28T19:31:12.182Z,99757.09
2024-02-28T19:33:40.630Z,99757.63
2024-02-28T19:36:08.338Z,99757.97
2024-02-28T19:38:35.092Z,99758.13
2024-02-28T19:41:01.731Z,99759.25
2024-02-28T19:43:28.383Z,99757.97
2024-02-28T19:45:55.139Z,99760.59
2024-02-28T19:48:22.043Z,99767.09
2024-02-28T19:50:48.639Z,99771.78
2024-02-28T19:53:15.308Z,99782.88
2024-02-28T19:55:42.056Z,99775.31
2024-02-28T19:58:08.780Z,99774.66
2024-02-28T20:00:35.724Z,99775.78
2024-02-28T20:03:04.486Z,99781.00
2024-02-28T20:05:31.206Z,99792.66
2024-02-28T20:07:57.845Z,99799.72
2024-02-28T20:10:24.480Z,99791.84
2024-02-28T20:12:51.192Z,99795.72
2024-02-28T20:15:18.424Z,99805.59
2024-02-28T20:17:45.491Z,99799.19
2024-02-28T20:20:12.268Z,99799.06
2024-02-28T20:22:39.012Z,99803.72
2024-02-28T20:25:06.171Z,99801.78
2024-02-28T20:27:32.904Z,99803.72
2024-02-28T20:29:59.580Z,99809.91
2024-02-28T20:32:26.321Z,99809.09
2024-02-28T20:34:53.020Z,99809.94
2024-02-28T20:37:22.574Z,99806.25
2024-02-28T20:39:50.008Z,99817.34
2024-02-28T20:42:16.811Z,99808.63
2024-02-28T20:44:43.512Z,99810.66
2024-02-28T20:47:10.377Z,99815.03
2024-02-28T20:49:37.709Z,99815.38
2024-02-28T20:52:04.857Z,99812.13
2024-02-28T20:54:31.573Z,99810.34
2024-02-28T20:57:05.820Z,99804.41
2024-02-28T20:59:39.145Z,99805.00
2024-02-28T21:02:06.284Z,99800.31
2024-02-28T21:04:34.702Z,99790.63
2024-02-28T21:07:01.375Z,99795.78
2024-02-28T21:09:28.217Z,99794.63
2024-02-28T21:12:04.936Z,99795.00
2024-02-28T21:14:31.998Z,99785.28
2024-02-28T21:16:58.900Z,99793.53
2024-02-28T21:19:26.737Z,99783.69
2024-02-28T21:21:53.645Z,99782.56
2024-02-28T21:24:20.573Z,99790.78
2024-02-28T21:26:47.389Z,99791.69
2024-02-28T21:29:14.204Z,99799.25
2024-02-28T21:31:40.933Z,99789.03
2024-02-28T21:34:08.655Z,99795.13
2024-02-28T21:36:35.571Z,99796.53
2024-02-28T21:39:03.793Z,99797.91
2024-02-28T21:41:30.440Z,99794.16
2024-02-28T21:44:00.042Z,99786.06
2024-02-28T21:46:26.823Z,99783.66
2024-02-28T21:49:02.353Z,99779.50
2024-02-28T21:51:33.132Z,99780.06
2024-02-28T21:54:00.208Z,99784.50
2024-02-28T21:56:26.873Z,99790.63
2024-02-28T21:58:53.596Z,99799.06
2024-02-28T22:01:20.498Z,99801.34
2024-02-28T22:03:47.240Z,99795.72
2024-02-28T22:06:13.883Z,99804.75
2024-02-28T22:08:40.625Z,99799.59
2024-02-28T22:11:10.543Z,99810.44
2024-02-28T22:13:37.221Z,99807.22
2024-02-28T22:16:04.336Z,99808.31
2024-02-28T22:18:31.247Z,99799.47
2024-02-28T22:20:58.192Z,99801.94
2024-02-28T22:23:25.046Z,99797.31
2024-02-28T22:25:51.718Z,99803.59
2024-02-28T22:28:18.348Z,99797.97
2024-02-28T22:30:45.084Z,99802.78
2024-02-28T22:33:11.839Z,99805.06
2024-02-28T22:35:39.769Z,99805.34
2024-02-28T22:38:06.455Z,99808.22
2024-02-28T22:40:33.089Z,99811.44
2024-02-28T22:42:59.943Z,99813.91
2024-02-28T22:45:26.913Z,99804.75
2024-02-28T22:47:53.686Z,99812.81
2024-02-28T22:50:20.410Z,99815.00
2024-02-28T22:52:47.880Z,99820.16
2024-02-28T22:55:17.688Z,99812.38
2024-02-28T22:57:46.447Z,99809.41
2024-02-28T23:00:33.757Z,99807.94
2024-02-28T23:03:05.380Z,99815.53
2024-02-28T23:05:33.262Z,99811.22
2024-02-28T23:08:00.767Z,99814.09
2024-02-28T23:10:27.769Z,99798.91
2024-02-28T23:12:56.307Z,99810.16
2024-02-28T23:15:23.761Z,99823.41
2024-02-28T23:17:54.271Z,99809.34
2024-02-28T23:20:35.264Z,99813.63
2024-02-28T23:23:03.895Z,99808.53
2024-02-28T23:25:30.590Z,99807.28
2024-02-28T23:27:57.494Z,99804.53
2024-02-28T23:30:24.177Z,99803.88
2024-02-28T23:32:50.994Z,99797.13
2024-02-28T23:35:17.936Z,99800.19
2024-02-28T23:37:44.659Z,99791.31
2024-02-28T23:40:12.889Z,99799.84
2024-02-28T23:42:40.656Z,99788.88
2024-02-28T23:45:08.298Z,99784.88
2024-02-28T23:47:35.171Z,99784.41
2024-02-28T23:50:01.877Z,99789.44
2024-02-28T23:52:28.878Z,99798.84
2024-02-28T23:54:55.553Z,99798.38
2024-02-28T23:57:22.229Z,99797.03
2024-02-28T23:59:49.228Z,99801.38
